Phuket, Thailand

12:49 AM ICT on August 01, 2014 (GMT +0700)
Phuket International (VTSP) Elev 30 ft | 8.11 °N, 98.32 °E | Change Station

Current weather conditions updated 19 minutes ago

Mostly Cloudy
Mostly Cloudy
84 °F
Feels Like 91 °F
N
13
Wind Variable Wind from West

Today is forecast to be nearly the same temperature as yesterday. Thunderstorms early.

Today
High -- | Low -- °F
--% Chance of Precip.
Yesterday
High -- | Low -- °F
Precip. -- in
6:18 AM 6:47 PM
Waxing Crescent, 20% visible
Pressure 29.83 in
Visibility 5.0 miles
Clouds Scattered Clouds 1800 ft
Scattered Clouds 12000 ft
Mostly Cloudy 30000 ft
Heat Index 91 °F
Dew Point 73 °F
Humidity 70%
Rainfall 0.00 in
Snow Depth Not available.
UV 0 out of 12
Pollen Not available.
Air Quality Not available.
Flu Activity Not available.
METAR VTSP 311730Z 26011KT 8000 SCT018 SCT120 BKN300 29/23 Q1010 A2985 NOSIG

More Conditions Fewer Conditions

Pressure 29.83 in
Visibility 5.0 miles
Clouds Scattered Clouds 1800 ft
Scattered Clouds 12000 ft
Mostly Cloudy 30000 ft
Heat Index 91 °F
Dew Point 73 °F
Humidity 70%
Rainfall 0.00 in
Snow Depth Not available.
UV 0 out of 12
Pollen Not available.
Air Quality Not available.
Flu Activity Not available.
METAR VTSP 311730Z 26011KT 8000 SCT018 SCT120 BKN300 29/23 Q1010 A2985 NOSIG

More Conditions Fewer Conditions

10-Day Weather Forecast

Almanac

Astronomy

Aug. 01, 2014 Rise Set
Actual Time 6:18 AM ICT 6:47 PM ICT
Civil Twilight 5:56 AM ICT 7:09 PM ICT
Nautical Twilight 5:31 AM ICT 7:34 PM ICT
Astronomical Twilight 5:05 AM ICT 8:00 PM ICT
Moon 10:08 AM ICT (8/1) 10:24 PM ICT (8/1)
Length of Visible Light 13h 12m
Length of Day
12h 28m
Tomorrow will be 0m 20s shorter.
Waxing Crescent, 20% of the Moon is Illuminated
Jul 31
Waxing Crescent
Aug 3
First Quarter
Aug 10
Full
Aug 17
Last Quarter
Aug 25
New

Yesterday's Extremes

Country Highs Country Lows

Community

WunderPhotos

Upload Photos

1,739,386 photos uploaded!

Nearby

Snow Depth

Not available.

Earthquake Activity

City Distance Mag. Time & Date
No recent earthquake activity has been reported nearby.
Minimum magnitude displayed is 2.5.

Coastal Water Temperatures

Place Temperature
No Stations Reporting

Nearby Weather Stations

Station Location Temp. Heat Index Dew Point Humidity Wind Precip. Elev Updated Type
Cherngtalay, Thalang, Phuket 82.3 °F 92 °F 78 °F 87% West  at  0.0 mph 0.00 in / hr 39 ft 10:48 PM ICT Normal
Ao Chalong Yacht Club, Wichit 82.8 °F 93 °F 79 °F 86% North  at  4.5 mph 0.00 in / hr 20 ft 9:55 PM ICT Normal
Mig`s house, Phuket 82.0 °F 88 °F 76 °F 78% West  at  6.0 mph 0.00 in / hr 35 ft 12:45 AM ICT Normal
Promthep Cape, Phuket, Rawai 81.7 °F 89 °F 77 °F 85% NW  at  2.0 mph 0.00 in / hr 190 ft 12:44 AM ICT Normal

Show More Stations Show Fewer Stations